Terminal Aerodrome Forecast
Issued by NWS

Home | Current Version | Previous Version | Text Only | Print | Product List | Glossary On
Versions: 1 2 3 4 5 6 7 8 9 10 11 12 13 14
000
FTUS45 KFGZ 200527
TAFPGA
TAF
KPGA 200527Z 2006/2106 26010KT P6SM SCT050 BKN100
     FM201600 27010KT P6SM BKN040 OVC100 PROB30 2016/2021 6SM -SHRA
      SCT025 BKN030
     FM202100 31008G15KT P6SM SCT060
     FM202300 01009KT P6SM FEW060=

USA.gov is the U.S. government's official web portal to all federal, state and local government web resources and services.